createdAt,value
2023-03-02T00:01:57.696Z,19.06
2023-03-02T00:04:43.125Z,19.10
2023-03-02T00:07:14.999Z,19.13
2023-03-02T00:09:45.576Z,19.18
2023-03-02T00:12:14.704Z,19.24
2023-03-02T00:14:43.176Z,19.28
2023-03-02T00:17:11.702Z,19.34
2023-03-02T00:19:40.060Z,19.40
2023-03-02T00:22:10.075Z,19.47
2023-03-02T00:24:39.123Z,19.52
2023-03-02T00:27:07.528Z,19.58
2023-03-02T00:29:35.844Z,19.62
2023-03-02T00:32:04.871Z,19.68
2023-03-02T00:34:33.317Z,19.72
2023-03-02T00:37:01.655Z,19.79
2023-03-02T00:39:31.297Z,19.84
2023-03-02T00:41:59.602Z,19.91
2023-03-02T00:44:27.888Z,19.96
2023-03-02T00:46:56.303Z,19.98
2023-03-02T00:49:24.959Z,20.05
2023-03-02T00:51:53.273Z,20.11
2023-03-02T00:54:21.598Z,20.16
2023-03-02T00:56:49.948Z,20.23
2023-03-02T00:59:27.746Z,20.28
2023-03-02T01:02:01.404Z,20.33
2023-03-02T01:04:32.603Z,20.40
2023-03-02T01:07:05.008Z,20.46
2023-03-02T01:09:33.864Z,20.50
2023-03-02T01:12:02.262Z,20.56
2023-03-02T01:14:31.012Z,20.63
2023-03-02T01:16:59.629Z,20.68
2023-03-02T01:19:27.997Z,20.75
2023-03-02T01:21:56.351Z,20.83
2023-03-02T01:24:24.912Z,20.90
2023-03-02T01:26:53.468Z,20.96
2023-03-02T01:29:21.918Z,21.03
2023-03-02T01:31:50.384Z,21.10
2023-03-02T01:34:18.809Z,21.17
2023-03-02T01:36:47.106Z,21.23
2023-03-02T01:39:18.692Z,21.31
2023-03-02T01:41:48.174Z,21.37
2023-03-02T01:44:44.291Z,21.46
2023-03-02T01:47:28.123Z,21.54
2023-03-02T01:50:05.716Z,21.61
2023-03-02T01:52:39.245Z,21.70
2023-03-02T01:55:11.555Z,21.75
2023-03-02T01:57:46.975Z,21.80
2023-03-02T02:00:26.123Z,21.85
2023-03-02T02:03:09.674Z,21.95
2023-03-02T02:05:48.794Z,22.05
2023-03-02T02:08:17.182Z,22.13
2023-03-02T02:10:45.596Z,22.21
2023-03-02T02:13:13.980Z,22.28
2023-03-02T02:15:42.496Z,22.32
2023-03-02T02:18:11.196Z,22.39
2023-03-02T02:20:42.992Z,22.46
2023-03-02T02:23:31.043Z,22.53
2023-03-02T02:26:22.055Z,22.60
2023-03-02T02:29:23.713Z,22.66
2023-03-02T02:31:58.449Z,22.75
2023-03-02T02:34:29.888Z,22.83
2023-03-02T02:37:13.113Z,22.92
2023-03-02T02:39:46.181Z,23.00
2023-03-02T02:42:20.096Z,23.07
2023-03-02T02:44:49.080Z,23.13
2023-03-02T02:47:23.190Z,23.21
2023-03-02T02:49:57.078Z,23.28
2023-03-02T02:52:29.164Z,23.36
2023-03-02T02:54:59.822Z,23.46
2023-03-02T02:57:31.467Z,23.55
2023-03-02T03:00:03.059Z,23.66
2023-03-02T03:02:38.662Z,23.78
2023-03-02T03:05:07.414Z,23.86
2023-03-02T03:07:35.912Z,23.96
2023-03-02T03:10:15.397Z,24.03
2023-03-02T03:12:44.641Z,24.08
2023-03-02T03:15:15.163Z,24.15
2023-03-02T03:17:56.137Z,24.23
2023-03-02T03:20:25.754Z,24.33
2023-03-02T03:23:00.191Z,24.44
2023-03-02T03:25:28.635Z,24.53
2023-03-02T03:27:56.987Z,24.63
2023-03-02T03:30:25.338Z,24.73
2023-03-02T03:32:53.625Z,24.81
2023-03-02T03:35:21.959Z,24.88
2023-03-02T03:37:50.531Z,24.97
2023-03-02T03:40:18.934Z,25.06
2023-03-02T03:42:47.656Z,25.15
2023-03-02T03:45:15.942Z,25.22
2023-03-02T03:47:44.235Z,25.31
2023-03-02T03:50:12.766Z,25.39
2023-03-02T03:52:41.112Z,25.46
2023-03-02T03:55:09.926Z,25.52
2023-03-02T03:57:38.570Z,25.57
2023-03-02T04:00:11.452Z,25.62
2023-03-02T04:02:39.947Z,25.69
2023-03-02T04:05:09.186Z,25.77
2023-03-02T04:07:38.593Z,25.83
2023-03-02T04:10:08.368Z,25.90
2023-03-02T04:12:38.981Z,25.95
2023-03-02T04:15:09.489Z,25.99
2023-03-02T04:17:37.793Z,26.02
2023-03-02T04:20:10.493Z,26.08
2023-03-02T04:22:38.968Z,26.15
2023-03-02T04:25:07.721Z,26.22
2023-03-02T04:27:36.106Z,26.30
2023-03-02T04:30:04.925Z,26.37
2023-03-02T04:32:33.262Z,26.42
2023-03-02T04:35:01.659Z,26.49
2023-03-02T04:37:30.060Z,26.57
2023-03-02T04:39:58.438Z,26.63
2023-03-02T04:42:26.763Z,26.70
2023-03-02T04:44:55.066Z,26.76
2023-03-02T04:47:23.886Z,26.82
2023-03-02T04:49:55.624Z,26.87
2023-03-02T04:52:24.171Z,26.93
2023-03-02T04:54:52.826Z,26.98
2023-03-02T04:57:21.149Z,27.03
2023-03-02T04:59:49.541Z,27.09
2023-03-02T05:02:18.501Z,27.14
2023-03-02T05:04:46.979Z,27.18
2023-03-02T05:07:15.353Z,27.23
2023-03-02T05:09:43.769Z,27.29
2023-03-02T05:12:12.154Z,27.36
2023-03-02T05:14:40.455Z,27.42
2023-03-02T05:17:08.757Z,27.46
2023-03-02T05:19:37.150Z,27.52
2023-03-02T05:22:05.596Z,27.59
2023-03-02T05:24:33.921Z,27.64
2023-03-02T05:27:02.341Z,27.69
2023-03-02T05:29:30.638Z,27.76
2023-03-02T05:31:59.397Z,27.81
2023-03-02T05:34:27.720Z,27.88
2023-03-02T05:36:58.064Z,27.94
2023-03-02T05:39:26.404Z,27.99
2023-03-02T05:41:54.698Z,28.03
2023-03-02T05:44:23.023Z,28.09
2023-03-02T05:46:51.410Z,28.11
2023-03-02T05:49:19.761Z,28.13
2023-03-02T05:51:48.063Z,28.15
2023-03-02T05:54:17.335Z,28.16
2023-03-02T05:56:45.692Z,28.17
2023-03-02T05:59:17.142Z,28.21
2023-03-02T06:01:46.376Z,28.27
2023-03-02T06:04:14.898Z,28.33
2023-03-02T06:06:43.239Z,28.39
2023-03-02T06:09:11.535Z,28.45
2023-03-02T06:11:39.931Z,28.52
2023-03-02T06:14:08.220Z,28.57
2023-03-02T06:16:38.200Z,28.62
2023-03-02T06:19:06.881Z,28.69
2023-03-02T06:21:35.224Z,28.72
2023-03-02T06:24:03.639Z,28.77
2023-03-02T06:26:32.433Z,28.81
2023-03-02T06:29:00.945Z,28.86
2023-03-02T06:31:29.327Z,28.88
2023-03-02T06:33:57.884Z,28.96
2023-03-02T06:36:26.198Z,28.98
2023-03-02T06:38:55.082Z,29.00
2023-03-02T06:41:23.820Z,29.04
2023-03-02T06:43:52.560Z,29.09
2023-03-02T06:46:20.916Z,29.12
2023-03-02T06:48:49.962Z,29.15
2023-03-02T06:51:19.132Z,29.19
2023-03-02T06:53:47.430Z,29.21
2023-03-02T06:56:15.840Z,29.23
2023-03-02T06:58:44.205Z,29.26
2023-03-02T07:01:12.557Z,29.28
2023-03-02T07:03:41.008Z,29.31
2023-03-02T07:06:09.459Z,29.34
2023-03-02T07:08:37.821Z,29.36
2023-03-02T07:11:08.223Z,29.37
2023-03-02T07:13:36.525Z,29.40
2023-03-02T07:16:11.204Z,29.44
2023-03-02T07:18:39.877Z,29.48
2023-03-02T07:21:08.356Z,29.50
2023-03-02T07:23:37.156Z,29.52
2023-03-02T07:26:09.266Z,29.53
2023-03-02T07:28:42.868Z,29.54
2023-03-02T07:31:12.486Z,29.56
2023-03-02T07:33:41.665Z,29.60
2023-03-02T07:36:10.208Z,29.64
2023-03-02T07:38:39.526Z,29.64
2023-03-02T07:41:09.454Z,29.67
2023-03-02T07:43:38.280Z,29.67
2023-03-02T07:46:06.917Z,29.68
2023-03-02T07:48:35.365Z,29.71
2023-03-02T07:51:05.807Z,29.71
2023-03-02T07:53:34.407Z,29.71
2023-03-02T07:56:07.952Z,29.71
2023-03-02T07:58:36.388Z,29.70
2023-03-02T08:01:05.374Z,29.73
2023-03-02T08:03:33.960Z,29.75
2023-03-02T08:06:11.001Z,29.77
2023-03-02T08:08:39.413Z,29.77
2023-03-02T08:11:13.430Z,29.76
2023-03-02T08:13:43.770Z,29.76
2023-03-02T08:16:14.397Z,29.76
2023-03-02T08:18:44.000Z,29.77
2023-03-02T08:21:18.310Z,29.75
2023-03-02T08:23:46.943Z,29.76
2023-03-02T08:26:17.466Z,29.76
2023-03-02T08:28:46.043Z,29.74
2023-03-02T08:31:14.867Z,29.74
2023-03-02T08:33:43.509Z,29.74
2023-03-02T08:36:17.741Z,29.75
2023-03-02T08:38:46.790Z,29.72
2023-03-02T08:41:18.453Z,29.72
2023-03-02T08:43:47.370Z,29.72
2023-03-02T08:46:18.065Z,29.70
2023-03-02T08:48:46.919Z,29.68
2023-03-02T08:51:21.377Z,29.69
2023-03-02T08:53:51.935Z,29.68
2023-03-02T08:56:23.260Z,29.66
2023-03-02T08:58:52.652Z,29.65
2023-03-02T09:01:24.715Z,29.61
2023-03-02T09:03:53.694Z,29.63
2023-03-02T09:06:22.236Z,29.62
2023-03-02T09:08:50.748Z,29.61
2023-03-02T09:11:19.221Z,29.60
2023-03-02T09:13:47.699Z,29.61
2023-03-02T09:16:17.164Z,29.61
2023-03-02T09:18:45.557Z,29.59
2023-03-02T09:21:14.181Z,29.58
2023-03-02T09:23:42.542Z,29.57
2023-03-02T09:26:11.152Z,29.53
2023-03-02T09:28:39.990Z,29.51
2023-03-02T09:31:09.762Z,29.47
2023-03-02T09:33:38.110Z,29.45
2023-03-02T09:36:12.466Z,29.41
2023-03-02T09:38:40.797Z,29.38
2023-03-02T09:41:09.141Z,29.34
2023-03-02T09:43:43.487Z,29.28
2023-03-02T09:46:18.736Z,29.23
2023-03-02T09:48:51.141Z,29.21
2023-03-02T09:51:52.984Z,29.17
2023-03-02T09:54:28.258Z,29.11
2023-03-02T09:56:58.932Z,29.08
2023-03-02T09:59:42.984Z,29.04
2023-03-02T10:02:29.598Z,28.99
2023-03-02T10:05:03.390Z,28.95
2023-03-02T10:07:35.576Z,28.91
2023-03-02T10:10:28.216Z,28.86
2023-03-02T10:13:02.423Z,28.81
2023-03-02T10:15:57.297Z,28.77
2023-03-02T10:18:35.569Z,28.72
2023-03-02T10:21:31.185Z,28.65
2023-03-02T10:24:18.637Z,28.58
2023-03-02T10:26:52.158Z,28.54
2023-03-02T10:29:56.707Z,28.48
2023-03-02T10:32:47.672Z,28.41
2023-03-02T10:35:20.281Z,28.35
2023-03-02T10:37:49.323Z,28.29
2023-03-02T10:40:48.366Z,28.24
2023-03-02T10:43:34.891Z,28.15
2023-03-02T10:46:09.533Z,28.10
2023-03-02T10:48:53.369Z,28.02
2023-03-02T10:51:33.663Z,27.97
2023-03-02T10:54:14.258Z,27.90
2023-03-02T10:56:53.058Z,27.82
2023-03-02T10:59:30.020Z,27.76
2023-03-02T11:02:24.324Z,27.70
2023-03-02T11:05:21.470Z,27.62
2023-03-02T11:07:59.253Z,27.53
2023-03-02T11:10:37.544Z,27.46
2023-03-02T11:13:29.765Z,27.39
2023-03-02T11:16:03.996Z,27.31
2023-03-02T11:19:26.966Z,27.23
2023-03-02T11:22:07.620Z,27.15
2023-03-02T11:24:46.384Z,27.06
2023-03-02T11:27:26.223Z,27.00
2023-03-02T11:30:16.829Z,26.92
2023-03-02T11:33:18.762Z,26.84
2023-03-02T11:35:52.655Z,26.77
2023-03-02T11:38:27.466Z,26.70
2023-03-02T11:41:14.385Z,26.64
2023-03-02T11:43:42.729Z,26.58
2023-03-02T11:46:24.712Z,26.49
2023-03-02T11:48:58.671Z,26.41
2023-03-02T11:51:42.358Z,26.33
2023-03-02T11:54:42.383Z,26.20
2023-03-02T11:57:49.472Z,26.12
2023-03-02T12:00:37.090Z,26.04
2023-03-02T12:03:22.004Z,25.94
2023-03-02T12:05:53.296Z,25.86
2023-03-02T12:08:21.540Z,25.77
2023-03-02T12:11:10.508Z,25.72
2023-03-02T12:13:41.229Z,25.64
2023-03-02T12:16:35.674Z,25.56
2023-03-02T12:19:19.506Z,25.51
2023-03-02T12:22:00.262Z,25.46
2023-03-02T12:24:34.773Z,25.40
2023-03-02T12:27:15.022Z,25.35
2023-03-02T12:29:46.965Z,25.28
2023-03-02T12:32:33.596Z,25.20
2023-03-02T12:35:22.069Z,25.15
2023-03-02T12:38:32.121Z,25.08
2023-03-02T12:41:18.327Z,25.01
2023-03-02T12:44:01.639Z,24.95
2023-03-02T12:46:30.068Z,24.88
2023-03-02T12:49:12.621Z,24.82
2023-03-02T12:51:55.462Z,24.74
2023-03-02T12:54:35.787Z,24.72
2023-03-02T12:57:15.176Z,24.67
2023-03-02T12:59:44.918Z,24.65
2023-03-02T13:02:19.679Z,24.61
2023-03-02T13:05:06.126Z,24.60
2023-03-02T13:07:42.963Z,24.59
2023-03-02T13:10:40.197Z,24.58
2023-03-02T13:13:28.033Z,24.62
2023-03-02T13:16:01.806Z,24.64
2023-03-02T13:18:33.628Z,24.68
2023-03-02T13:21:03.705Z,24.71
2023-03-02T13:23:33.988Z,24.75
2023-03-02T13:26:05.778Z,24.78
2023-03-02T13:28:37.807Z,24.80
2023-03-02T13:31:16.456Z,24.82
2023-03-02T13:33:47.176Z,24.85
2023-03-02T13:36:36.422Z,24.87
2023-03-02T13:39:08.541Z,24.86
2023-03-02T13:41:38.377Z,24.84
2023-03-02T13:44:20.802Z,24.85
2023-03-02T13:46:49.722Z,24.83
2023-03-02T13:49:35.120Z,24.80
2023-03-02T13:52:19.732Z,24.79
2023-03-02T13:54:48.972Z,24.78
2023-03-02T13:57:29.188Z,24.75
2023-03-02T14:00:01.327Z,24.74
2023-03-02T14:02:31.556Z,24.71
2023-03-02T14:05:00.005Z,24.69
2023-03-02T14:07:28.348Z,24.68
2023-03-02T14:09:57.607Z,24.66
2023-03-02T14:12:31.912Z,24.65
2023-03-02T14:15:03.210Z,24.61
2023-03-02T14:17:31.837Z,24.60
2023-03-02T14:20:00.383Z,24.58
2023-03-02T14:22:32.877Z,24.55
2023-03-02T14:25:01.378Z,24.54
2023-03-02T14:27:32.000Z,24.51
2023-03-02T14:30:01.698Z,24.47
2023-03-02T14:32:30.244Z,24.45
2023-03-02T14:34:59.068Z,24.43
2023-03-02T14:37:31.159Z,24.40
2023-03-02T14:39:59.690Z,24.40
2023-03-02T14:42:27.992Z,24.39
2023-03-02T14:44:56.311Z,24.38
2023-03-02T14:47:25.575Z,24.38
2023-03-02T14:49:59.544Z,24.37
2023-03-02T14:52:48.796Z,24.36
2023-03-02T14:55:26.654Z,24.37
2023-03-02T14:58:02.220Z,24.36
2023-03-02T15:00:30.604Z,24.35
2023-03-02T15:03:00.363Z,24.34
2023-03-02T15:05:28.862Z,24.33
2023-03-02T15:07:58.867Z,24.30
2023-03-02T15:10:27.388Z,24.31
2023-03-02T15:12:55.697Z,24.30
2023-03-02T15:15:25.559Z,24.27
2023-03-02T15:17:53.862Z,24.24
2023-03-02T15:20:22.258Z,24.22
2023-03-02T15:22:50.563Z,24.21
2023-03-02T15:25:19.004Z,24.19
2023-03-02T15:27:47.340Z,24.17
2023-03-02T15:30:15.656Z,24.14
2023-03-02T15:32:44.081Z,24.12
2023-03-02T15:35:15.617Z,24.09
2023-03-02T15:37:44.044Z,24.07
2023-03-02T15:40:13.074Z,24.04
2023-03-02T15:42:41.430Z,24.01
2023-03-02T15:45:09.920Z,23.98
2023-03-02T15:47:38.975Z,23.94
2023-03-02T15:50:07.696Z,23.93
2023-03-02T15:52:35.994Z,23.90
2023-03-02T15:55:04.719Z,23.88
2023-03-02T15:57:38.617Z,23.86
2023-03-02T16:00:08.121Z,23.84
2023-03-02T16:02:36.656Z,23.82
2023-03-02T16:05:05.238Z,23.80
2023-03-02T16:07:33.825Z,23.77
2023-03-02T16:10:02.310Z,23.76
2023-03-02T16:12:30.614Z,23.72
2023-03-02T16:14:58.922Z,23.71
2023-03-02T16:17:27.272Z,23.68
2023-03-02T16:19:55.640Z,23.66
2023-03-02T16:22:24.014Z,23.62
2023-03-02T16:24:52.438Z,23.59
2023-03-02T16:27:21.417Z,23.57
2023-03-02T16:29:49.804Z,23.55
2023-03-02T16:32:18.265Z,23.51
2023-03-02T16:34:46.625Z,23.51
2023-03-02T16:37:15.087Z,23.48
2023-03-02T16:39:44.472Z,23.46
2023-03-02T16:42:12.779Z,23.42
2023-03-02T16:44:41.155Z,23.41
2023-03-02T16:47:09.478Z,23.37
2023-03-02T16:49:37.776Z,23.35
2023-03-02T16:52:06.273Z,23.32
2023-03-02T16:54:34.653Z,23.29
2023-03-02T16:57:03.038Z,23.26
2023-03-02T16:59:31.386Z,23.23
2023-03-02T17:01:59.689Z,23.21
2023-03-02T17:04:28.194Z,23.18
2023-03-02T17:07:00.749Z,23.15
2023-03-02T17:09:29.731Z,23.13
2023-03-02T17:11:58.155Z,23.10
2023-03-02T17:14:27.049Z,23.08
2023-03-02T17:16:57.341Z,23.05
2023-03-02T17:19:27.827Z,23.03
2023-03-02T17:21:59.220Z,23.00
2023-03-02T17:24:29.090Z,22.96
2023-03-02T17:26:58.115Z,22.94
2023-03-02T17:29:26.512Z,22.92
2023-03-02T17:31:55.046Z,22.89
2023-03-02T17:34:23.494Z,22.86
2023-03-02T17:36:51.795Z,22.83
2023-03-02T17:39:20.244Z,22.80
2023-03-02T17:41:48.558Z,22.77
2023-03-02T17:44:16.912Z,22.76
2023-03-02T17:46:48.888Z,22.72
2023-03-02T17:49:17.263Z,22.69
2023-03-02T17:51:45.653Z,22.67
2023-03-02T17:54:14.015Z,22.63
2023-03-02T17:56:42.405Z,22.60
2023-03-02T17:59:11.836Z,22.58
2023-03-02T18:01:40.215Z,22.55
2023-03-02T18:04:08.570Z,22.51
2023-03-02T18:06:37.119Z,22.48
2023-03-02T18:09:05.524Z,22.46
2023-03-02T18:11:34.205Z,22.44
2023-03-02T18:14:02.717Z,22.40
2023-03-02T18:16:31.915Z,22.36
2023-03-02T18:19:00.285Z,22.31
2023-03-02T18:21:29.254Z,22.32
2023-03-02T18:23:58.275Z,22.29
2023-03-02T18:26:26.781Z,22.27
2023-03-02T18:28:55.070Z,22.24
2023-03-02T18:31:23.927Z,22.20
2023-03-02T18:33:52.746Z,22.18
2023-03-02T18:36:21.083Z,22.15
2023-03-02T18:38:49.435Z,22.13
2023-03-02T18:41:17.759Z,22.11
2023-03-02T18:43:46.172Z,22.07
2023-03-02T18:46:26.301Z,22.04
2023-03-02T18:48:56.057Z,22.01
2023-03-02T18:51:26.200Z,21.99
2023-03-02T18:53:55.385Z,21.96
2023-03-02T18:56:24.463Z,21.92
2023-03-02T18:58:53.086Z,21.86
2023-03-02T19:01:21.812Z,21.84
2023-03-02T19:03:51.008Z,21.79
2023-03-02T19:06:21.434Z,21.75
2023-03-02T19:08:50.433Z,21.71
2023-03-02T19:11:18.810Z,21.67
2023-03-02T19:13:47.406Z,21.60
2023-03-02T19:16:18.275Z,21.56
2023-03-02T19:18:46.905Z,21.51
2023-03-02T19:21:15.353Z,21.45
2023-03-02T19:23:45.658Z,21.41
2023-03-02T19:26:15.253Z,21.36
2023-03-02T19:28:43.618Z,21.29
2023-03-02T19:31:12.313Z,21.24
2023-03-02T19:33:41.909Z,21.20
2023-03-02T19:36:11.062Z,21.13
2023-03-02T19:38:42.502Z,21.11
2023-03-02T19:41:14.491Z,21.07
2023-03-02T19:43:43.734Z,21.04
2023-03-02T19:46:12.365Z,20.99
2023-03-02T19:48:40.759Z,20.96
2023-03-02T19:51:10.314Z,20.93
2023-03-02T19:53:39.897Z,20.91
2023-03-02T19:56:13.562Z,20.87
2023-03-02T19:58:50.528Z,20.84
2023-03-02T20:01:25.546Z,20.80
2023-03-02T20:03:55.462Z,20.79
2023-03-02T20:06:26.665Z,20.77
2023-03-02T20:08:55.108Z,20.76
2023-03-02T20:11:23.682Z,20.74
2023-03-02T20:13:53.032Z,20.72
2023-03-02T20:16:23.699Z,20.69
2023-03-02T20:18:53.484Z,20.68
2023-03-02T20:21:22.207Z,20.66
2023-03-02T20:23:51.510Z,20.64
2023-03-02T20:26:20.260Z,20.62
2023-03-02T20:28:49.747Z,20.61
2023-03-02T20:31:19.260Z,20.60
2023-03-02T20:33:50.989Z,20.59
2023-03-02T20:36:28.512Z,20.55
2023-03-02T20:39:33.227Z,20.52
2023-03-02T20:42:02.717Z,20.49
2023-03-02T20:44:34.119Z,20.46
2023-03-02T20:47:09.191Z,20.43
2023-03-02T20:49:39.061Z,20.39
2023-03-02T20:52:09.256Z,20.37
2023-03-02T20:54:41.541Z,20.35
2023-03-02T20:57:10.753Z,20.32
2023-03-02T20:59:39.357Z,20.31
2023-03-02T21:02:07.741Z,20.28
2023-03-02T21:04:37.055Z,20.25
2023-03-02T21:07:05.906Z,20.22
2023-03-02T21:09:34.291Z,20.19
2023-03-02T21:12:03.315Z,20.15
2023-03-02T21:14:34.218Z,20.12
2023-03-02T21:17:03.261Z,20.03
2023-03-02T21:19:33.519Z,19.98
2023-03-02T21:22:02.403Z,19.93
2023-03-02T21:24:31.205Z,19.87
2023-03-02T21:27:01.242Z,19.83
2023-03-02T21:29:30.035Z,19.79
2023-03-02T21:31:58.569Z,19.77
2023-03-02T21:34:26.991Z,19.73
2023-03-02T21:36:55.413Z,19.74
2023-03-02T21:39:24.607Z,19.71
2023-03-02T21:41:54.161Z,19.69
2023-03-02T21:44:22.585Z,19.66
2023-03-02T21:46:51.789Z,19.62
2023-03-02T21:49:22.705Z,19.59
2023-03-02T21:51:51.488Z,19.55
2023-03-02T21:54:19.839Z,19.48
2023-03-02T21:56:48.193Z,19.45
2023-03-02T21:59:16.531Z,19.42
2023-03-02T22:01:45.116Z,19.38
2023-03-02T22:04:13.458Z,19.37
2023-03-02T22:06:41.799Z,19.34
2023-03-02T22:09:12.095Z,19.32
2023-03-02T22:11:40.470Z,19.28
2023-03-02T22:14:14.343Z,19.26
2023-03-02T22:16:46.033Z,19.22
2023-03-02T22:19:29.848Z,19.20
2023-03-02T22:22:04.205Z,19.18
2023-03-02T22:24:34.973Z,19.16
2023-03-02T22:27:06.321Z,19.14
2023-03-02T22:29:46.723Z,19.10
2023-03-02T22:32:24.041Z,19.05
2023-03-02T22:35:00.696Z,19.00
2023-03-02T22:37:33.265Z,18.96
2023-03-02T22:40:30.358Z,18.93
2023-03-02T22:43:37.422Z,18.90
2023-03-02T22:46:18.350Z,18.88
2023-03-02T22:48:48.691Z,18.87
2023-03-02T22:51:20.011Z,18.86
2023-03-02T22:53:52.099Z,18.86
2023-03-02T22:56:38.014Z,18.84
2023-03-02T22:59:25.742Z,18.81
2023-03-02T23:02:16.010Z,18.78
2023-03-02T23:04:44.556Z,18.76
2023-03-02T23:07:15.414Z,18.73
2023-03-02T23:09:43.737Z,18.70
2023-03-02T23:12:25.151Z,18.68
2023-03-02T23:14:58.745Z,18.66
2023-03-02T23:17:40.800Z,18.63
2023-03-02T23:20:13.098Z,18.63
2023-03-02T23:22:42.280Z,18.60
2023-03-02T23:25:10.815Z,18.58
2023-03-02T23:27:39.168Z,18.56
2023-03-02T23:30:07.867Z,18.55
2023-03-02T23:32:37.007Z,18.53
2023-03-02T23:35:05.517Z,18.53
2023-03-02T23:37:34.102Z,18.52
2023-03-02T23:40:02.411Z,18.54
2023-03-02T23:42:31.006Z,18.54
2023-03-02T23:44:59.638Z,18.56
2023-03-02T23:47:27.916Z,18.57
2023-03-02T23:49:56.238Z,18.56
2023-03-02T23:52:24.692Z,18.57
2023-03-02T23:54:53.172Z,18.57
2023-03-02T23:57:21.487Z,18.59
2023-03-02T23:59:49.779Z,18.59
